Time;durP1;ratioP1;P1;durP2;ratioP2;P2;SDS_P1;SDS_P2;PMS_P1;PMS_P2;Temp;Humidity;BMP_temperature;BMP_pressure;BME280_temperature;BME280_humidity;BME280_pressure;Samples;Min_cycle;Max_cycle;Signal;HPM_P1;HPM_P2
2023/04/23 00:01:07;;;;;;;25.65;15.90;;;9.00;99.90;;;;;;4863662;29;20077;-83
2023/04/23 00:03:36;;;;;;;27.63;15.60;;;9.00;99.90;;;;;;4878213;29;20486;-84
2023/04/23 00:06:06;;;;;;;27.83;16.58;;;8.90;99.90;;;;;;4878125;29;20046;-83
2023/04/23 00:08:34;;;;;;;28.20;15.90;;;8.90;99.90;;;;;;4863030;29;20427;-84
2023/04/23 00:11:01;;;;;;;27.33;16.35;;;8.90;99.90;;;;;;4863211;29;20533;-84
2023/04/23 00:13:28;;;;;;;30.33;16.67;;;8.90;99.90;;;;;;4862971;29;20132;-84
2023/04/23 00:15:59;;;;;;;29.02;17.23;;;8.80;99.90;;;;;;4864006;29;20041;-84
2023/04/23 00:18:25;;;;;;;30.33;17.10;;;8.90;99.90;;;;;;4860227;29;20052;-84
2023/04/23 00:20:52;;;;;;;35.72;18.80;;;8.90;99.90;;;;;;4859686;29;20547;-83
2023/04/23 00:23:19;;;;;;;31.20;18.27;;;8.90;99.90;;;;;;4844613;29;20133;-84
2023/04/23 00:25:45;;;;;;;31.73;19.30;;;8.90;99.90;;;;;;4844736;29;20038;-84
2023/04/23 00:28:12;;;;;;;31.50;18.63;;;8.90;99.90;;;;;;4847636;29;20121;-84
2023/04/23 00:30:39;;;;;;;30.17;17.00;;;8.90;99.90;;;;;;4878274;29;20041;-84
2023/04/23 00:33:06;;;;;;;32.47;18.90;;;8.90;99.90;;;;;;4862675;29;20052;-84
2023/04/23 00:35:33;;;;;;;32.83;18.10;;;9.00;99.90;;;;;;4863298;29;20053;-83
2023/04/23 00:37:59;;;;;;;35.95;19.88;;;8.90;99.90;;;;;;4862543;29;20495;-83
2023/04/23 00:40:26;;;;;;;33.95;19.02;;;8.90;99.90;;;;;;4862400;29;20049;-84
2023/04/23 00:42:55;;;;;;;34.05;19.33;;;8.90;99.90;;;;;;4877818;29;20509;-83
2023/04/23 00:45:21;;;;;;;31.92;19.35;;;8.90;99.90;;;;;;4877383;29;20112;-84
2023/04/23 00:47:49;;;;;;;37.72;22.33;;;8.90;99.90;;;;;;4862957;29;20041;-83
2023/04/23 00:50:15;;;;;;;38.40;21.27;;;8.90;99.90;;;;;;4877804;29;20483;-83
2023/04/23 00:52:42;;;;;;;38.28;21.05;;;8.90;99.90;;;;;;4892774;29;20049;-83
2023/04/23 00:55:09;;;;;;;38.10;21.88;;;8.90;99.90;;;;;;4862439;29;20129;-83
2023/04/23 00:57:37;;;;;;;39.47;21.25;;;8.90;99.90;;;;;;4862644;29;20052;-83
2023/04/23 01:00:06;;;;;;;40.13;21.88;;;8.90;99.90;;;;;;4862365;29;20128;-84
2023/04/23 01:02:35;;;;;;;34.53;20.67;;;8.90;99.90;;;;;;4862131;29;20060;-84
2023/04/23 01:05:03;;;;;;;38.83;20.92;;;8.90;99.90;;;;;;4877482;29;20513;-83
2023/04/23 01:07:34;;;;;;;37.60;20.40;;;8.90;99.90;;;;;;4862383;29;20109;-83
2023/04/23 01:10:03;;;;;;;40.22;20.70;;;8.90;99.90;;;;;;4892743;29;20033;-83
2023/04/23 01:12:31;;;;;;;38.10;19.95;;;9.00;99.90;;;;;;4862666;29;20042;-83
2023/04/23 01:14:58;;;;;;;34.05;19.73;;;9.00;99.90;;;;;;4862108;29;20049;-83
2023/04/23 01:17:25;;;;;;;40.20;19.60;;;9.00;99.90;;;;;;4877268;29;20128;-84
2023/04/23 01:19:52;;;;;;;37.83;20.23;;;9.00;99.90;;;;;;4862157;29;20491;-83
2023/04/23 01:22:19;;;;;;;39.45;20.15;;;9.10;99.90;;;;;;4859155;29;20042;-83
2023/04/23 01:24:46;;;;;;;38.55;20.45;;;9.00;99.90;;;;;;4862167;29;20048;-83
2023/04/23 01:27:13;;;;;;;33.35;19.23;;;9.00;99.90;;;;;;4862790;29;20436;-83
2023/04/23 01:29:40;;;;;;;34.60;19.67;;;9.00;99.90;;;;;;4892617;29;20042;-84
2023/04/23 01:32:07;;;;;;;35.72;20.27;;;9.00;99.90;;;;;;4877616;29;20042;-84
2023/04/23 01:34:34;;;;;;;38.20;19.77;;;9.00;99.90;;;;;;4862135;29;20097;-84
2023/04/23 01:37:02;;;;;;;38.53;20.15;;;8.90;99.90;;;;;;4861959;29;20041;-83
2023/04/23 01:39:30;;;;;;;36.20;18.40;;;8.90;99.90;;;;;;4862297;29;20083;-83
2023/04/23 01:41:57;;;;;;;33.25;18.38;;;8.90;99.90;;;;;;4877133;29;20045;-83
2023/04/23 01:44:23;;;;;;;29.75;17.45;;;8.90;99.90;;;;;;4862296;29;20033;-84
2023/04/23 01:46:51;;;;;;;33.15;18.67;;;8.90;99.90;;;;;;4846577;29;20100;-83
2023/04/23 01:49:18;;;;;;;37.78;18.35;;;8.90;99.90;;;;;;4861900;29;20049;-83
2023/04/23 01:51:44;;;;;;;35.58;18.15;;;8.90;99.90;;;;;;4861826;29;20045;-83
2023/04/23 01:54:11;;;;;;;35.00;18.85;;;8.90;99.90;;;;;;4846813;29;20045;-83
2023/04/23 01:56:38;;;;;;;34.83;18.05;;;8.90;99.90;;;;;;4863788;29;20082;-83
2023/04/23 01:59:06;;;;;;;34.15;18.65;;;8.80;99.90;;;;;;4865188;29;20877;-83
2023/04/23 02:01:46;;;;;;;36.53;18.63;;;8.80;99.90;;;;;;4850492;29;20049;-83
2023/04/23 02:04:14;;;;;;;36.88;19.98;;;8.80;99.90;;;;;;4880272;29;20053;-83
2023/04/23 02:06:43;;;;;;;35.72;18.60;;;8.80;99.90;;;;;;4865251;29;20604;-83
2023/04/23 02:09:10;;;;;;;39.22;19.15;;;8.80;99.90;;;;;;4880185;29;20590;-83
2023/04/23 02:11:37;;;;;;;36.67;18.77;;;8.80;99.90;;;;;;4865397;29;20115;-83
2023/04/23 02:14:05;;;;;;;35.45;19.33;;;8.70;99.90;;;;;;4895870;29;20049;-83
2023/04/23 02:16:33;;;;;;;34.17;19.27;;;8.70;99.90;;;;;;4880157;29;20507;-83
2023/04/23 02:19:00;;;;;;;39.00;20.55;;;8.60;99.90;;;;;;4864744;29;20432;-83
2023/04/23 02:21:27;;;;;;;38.67;20.08;;;8.60;99.90;;;;;;4880192;29;20414;-83
2023/04/23 02:23:55;;;;;;;40.38;20.33;;;8.60;99.90;;;;;;4864811;29;20038;-83
2023/04/23 02:26:22;;;;;;;33.60;17.95;;;8.50;99.90;;;;;;4864615;29;20042;-83
2023/04/23 02:28:49;;;;;;;34.88;19.08;;;8.50;99.90;;;;;;4864703;29;20093;-83
2023/04/23 02:31:16;;;;;;;39.53;19.35;;;8.50;99.90;;;;;;4864610;29;20132;-83
2023/04/23 02:33:43;;;;;;;36.50;19.88;;;8.50;99.90;;;;;;4864579;29;20137;-83
2023/04/23 02:36:11;;;;;;;33.38;18.58;;;8.50;99.90;;;;;;4864711;29;20049;-83
2023/04/23 02:38:41;;;;;;;35.25;19.75;;;8.50;99.90;;;;;;4861467;29;20089;-83
2023/04/23 02:41:07;;;;;;;32.75;18.55;;;8.40;99.90;;;;;;4846897;29;20050;-83
2023/04/23 02:43:34;;;;;;;35.35;19.73;;;8.40;99.90;;;;;;4846341;29;20522;-83
2023/04/23 02:46:06;;;;;;;31.80;18.52;;;8.40;99.90;;;;;;4861254;29;20042;-83
2023/04/23 02:48:39;;;;;;;35.13;19.25;;;8.30;99.90;;;;;;4862032;29;20041;-83
2023/04/23 02:51:09;;;;;;;37.35;18.90;;;8.30;99.90;;;;;;4879410;29;20045;-83
2023/04/23 02:53:35;;;;;;;32.55;18.60;;;8.30;99.90;;;;;;4879454;29;20045;-83
2023/04/23 02:56:02;;;;;;;31.35;18.10;;;8.30;99.90;;;;;;4848829;29;20052;-83
2023/04/23 02:58:29;;;;;;;32.90;19.15;;;8.20;99.90;;;;;;4864093;29;20518;-83
2023/04/23 03:00:56;;;;;;;29.92;18.92;;;8.20;99.90;;;;;;4863695;29;20106;-83
2023/04/23 03:03:25;;;;;;;35.40;18.60;;;8.10;99.90;;;;;;4863597;29;20842;-83
2023/04/23 03:05:52;;;;;;;37.33;19.70;;;8.00;99.90;;;;;;4849374;29;20049;-83
2023/04/23 03:08:19;;;;;;;31.02;18.60;;;8.00;99.90;;;;;;4863224;29;20048;-83
2023/04/23 03:10:45;;;;;;;36.35;20.50;;;8.00;99.90;;;;;;4849110;29;20042;-83
2023/04/23 03:13:12;;;;;;;33.70;19.70;;;8.00;99.90;;;;;;4864006;29;20045;-83
2023/04/23 03:15:40;;;;;;;35.85;19.48;;;8.00;99.90;;;;;;4864307;29;20049;-83
2023/04/23 03:18:07;;;;;;;38.67;20.50;;;7.90;99.90;;;;;;4863533;29;20049;-83
2023/04/23 03:20:34;;;;;;;33.65;19.60;;;7.90;99.90;;;;;;4848709;29;20045;-83
2023/04/23 03:23:02;;;;;;;34.38;19.83;;;7.90;99.90;;;;;;4863489;29;20757;-83
2023/04/23 03:25:29;;;;;;;35.47;20.25;;;7.90;99.90;;;;;;4878948;29;20387;-83
2023/04/23 03:27:56;;;;;;;35.80;19.10;;;7.80;99.90;;;;;;4848903;29;20038;-83
2023/04/23 03:30:22;;;;;;;33.55;19.45;;;7.80;99.90;;;;;;4863638;29;20052;-83
2023/04/23 03:32:49;;;;;;;36.97;20.10;;;7.70;99.90;;;;;;4879093;29;20086;-83
2023/04/23 03:35:16;;;;;;;35.25;19.95;;;7.70;99.90;;;;;;4878619;29;20068;-83
2023/04/23 03:37:43;;;;;;;38.88;21.13;;;7.60;99.90;;;;;;4863769;29;20044;-83
2023/04/23 03:40:10;;;;;;;37.90;20.67;;;7.60;99.90;;;;;;4860166;29;20049;-83
2023/04/23 03:42:36;;;;;;;39.50;20.38;;;7.60;99.90;;;;;;4878437;29;20719;-83
2023/04/23 03:45:03;;;;;;;38.88;20.55;;;7.60;99.90;;;;;;4863223;29;20384;-83
2023/04/23 03:47:30;;;;;;;40.60;21.58;;;7.50;99.90;;;;;;4863438;29;20479;-83
2023/04/23 03:49:57;;;;;;;40.95;20.67;;;7.50;99.90;;;;;;4875196;29;20052;-83
2023/04/23 03:52:23;;;;;;;44.63;22.60;;;7.50;99.90;;;;;;4867126;29;20472;-83
2023/04/23 03:54:50;;;;;;;41.90;21.65;;;7.50;99.90;;;;;;4875187;29;20089;-83
2023/04/23 03:57:17;;;;;;;50.90;23.50;;;7.50;99.90;;;;;;4859741;29;20050;-83
2023/04/23 03:59:43;;;;;;;40.65;21.70;;;7.40;99.90;;;;;;4844850;29;20042;-82
2023/04/23 04:02:10;;;;;;;43.78;22.63;;;7.40;99.90;;;;;;4859317;29;20042;-83
2023/04/23 04:04:37;;;;;;;45.05;23.08;;;7.40;99.90;;;;;;4859791;29;20424;-83
2023/04/23 04:07:04;;;;;;;45.97;22.20;;;7.40;99.90;;;;;;4874755;29;20103;-82
2023/04/23 04:09:31;;;;;;;46.78;22.90;;;7.40;99.90;;;;;;4874578;29;20044;-83
2023/04/23 04:11:58;;;;;;;48.83;23.25;;;7.40;99.90;;;;;;4859489;29;20050;-83
2023/04/23 04:14:24;;;;;;;45.35;23.30;;;7.40;99.90;;;;;;4859619;29;20041;-83
2023/04/23 04:16:51;;;;;;;43.53;22.90;;;7.30;99.90;;;;;;4859446;29;20049;-83
2023/04/23 04:19:19;;;;;;;49.65;22.85;;;7.30;99.90;;;;;;4858966;29;20511;-83
2023/04/23 04:21:46;;;;;;;49.03;23.33;;;7.30;99.90;;;;;;4877888;29;20069;-83
2023/04/23 04:24:13;;;;;;;51.22;23.98;;;7.30;99.90;;;;;;4862844;29;20128;-83
2023/04/23 04:26:40;;;;;;;44.47;22.38;;;7.30;99.90;;;;;;4862743;29;20194;-83
2023/04/23 04:29:09;;;;;;;50.10;23.73;;;7.30;99.90;;;;;;4862806;29;20049;-83
2023/04/23 04:31:36;;;;;;;48.92;23.85;;;7.30;99.90;;;;;;4862648;29;20491;-83
2023/04/23 04:34:03;;;;;;;47.30;23.80;;;7.30;99.90;;;;;;4862705;29;20045;-83
2023/04/23 04:36:30;;;;;;;54.40;26.63;;;7.40;99.90;;;;;;4877394;29;20053;-83
2023/04/23 04:38:57;;;;;;;50.10;25.20;;;7.40;99.90;;;;;;4862464;29;20434;-83
2023/04/23 04:41:24;;;;;;;47.22;25.42;;;7.40;99.90;;;;;;4862492;29;20061;-83
2023/04/23 04:43:51;;;;;;;51.67;26.33;;;7.50;99.90;;;;;;4862514;29;20057;-83
2023/04/23 04:46:20;;;;;;;52.83;25.55;;;7.50;99.90;;;;;;4877275;29;20467;-83
2023/04/23 04:48:47;;;;;;;52.90;25.85;;;7.50;99.90;;;;;;4877766;29;20483;-83
2023/04/23 04:51:14;;;;;;;53.17;24.85;;;7.70;99.90;;;;;;4862355;29;20046;-83
2023/04/23 04:53:41;;;;;;;52.60;26.10;;;7.60;99.90;;;;;;4877492;29;20427;-83
2023/04/23 04:56:08;;;;;;;54.45;25.02;;;7.60;99.90;;;;;;4877633;29;20056;-83
2023/04/23 04:58:35;;;;;;;57.13;26.33;;;7.70;99.90;;;;;;4862405;29;20097;-83
2023/04/23 05:01:02;;;;;;;63.88;28.23;;;7.70;99.90;;;;;;4862312;29;20121;-83
2023/04/23 05:03:29;;;;;;;53.05;27.25;;;7.80;99.90;;;;;;4858598;29;20094;-83
2023/04/23 05:05:57;;;;;;;57.83;28.95;;;7.80;99.90;;;;;;4859078;29;20105;-84
2023/04/23 05:08:24;;;;;;;58.65;28.50;;;7.80;99.90;;;;;;4862491;29;20097;-83
2023/04/23 05:10:52;;;;;;;61.40;29.15;;;7.90;99.90;;;;;;4862203;29;20448;-83
2023/04/23 05:13:19;;;;;;;60.83;27.75;;;7.90;99.90;;;;;;4876841;29;20053;-83
2023/04/23 05:15:46;;;;;;;66.68;30.50;;;7.90;99.90;;;;;;4877198;29;20059;-83
2023/04/23 05:18:13;;;;;;;66.72;31.23;;;8.00;99.90;;;;;;4877239;29;20391;-83
2023/04/23 05:20:40;;;;;;;66.10;30.25;;;8.00;99.90;;;;;;4876880;29;20053;-83
2023/04/23 05:23:07;;;;;;;71.25;31.83;;;8.00;99.90;;;;;;4862052;29;20050;-83
2023/04/23 05:25:34;;;;;;;72.72;32.97;;;8.00;99.90;;;;;;4861822;29;20501;-83
2023/04/23 05:28:01;;;;;;;75.13;33.97;;;8.10;99.90;;;;;;4861993;29;20049;-83
2023/04/23 05:30:28;;;;;;;70.90;33.45;;;8.20;99.90;;;;;;4861813;29;20053;-83
2023/04/23 05:32:55;;;;;;;80.97;33.83;;;8.20;99.90;;;;;;4877433;29;20112;-83
2023/04/23 05:35:21;;;;;;;76.45;32.80;;;8.20;99.90;;;;;;4876506;29;20037;-83
2023/04/23 05:37:48;;;;;;;72.90;33.60;;;8.20;99.90;;;;;;4865448;29;20077;-83
2023/04/23 05:40:15;;;;;;;70.90;32.88;;;8.20;99.90;;;;;;4880695;29;20045;-83
2023/04/23 05:42:41;;;;;;;78.90;34.28;;;8.20;99.90;;;;;;4865330;29;20045;-83
2023/04/23 05:45:08;;;;;;;75.18;32.85;;;8.20;99.90;;;;;;4853504;29;20090;-84
2023/04/23 05:47:35;;;;;;;68.82;31.70;;;8.20;99.90;;;;;;4876307;29;20506;-84
2023/04/23 05:50:02;;;;;;;75.97;34.72;;;8.30;99.90;;;;;;4870979;29;20033;-84
2023/04/23 05:52:34;;;;;;;73.50;33.30;;;8.30;99.90;;;;;;4872696;29;20053;-83
2023/04/23 05:55:01;;;;;;;73.63;33.38;;;8.30;99.90;;;;;;4885729;29;20049;-84
2023/04/23 05:57:27;;;;;;;70.40;31.60;;;8.40;99.90;;;;;;4862029;29;20567;-83
2023/04/23 05:59:54;;;;;;;70.35;33.67;;;8.50;99.90;;;;;;4864669;29;20419;-84
2023/04/23 06:02:21;;;;;;;78.78;36.10;;;8.50;99.90;;;;;;4861766;29;20050;-83
2023/04/23 06:04:47;;;;;;;76.70;34.17;;;8.60;99.90;;;;;;4861827;29;20057;-84
2023/04/23 06:07:15;;;;;;;71.75;32.83;;;8.60;99.90;;;;;;4862325;29;20410;-84
2023/04/23 06:09:41;;;;;;;77.63;33.63;;;8.70;99.90;;;;;;4858902;29;20038;-84
2023/04/23 06:12:10;;;;;;;73.50;33.35;;;8.80;99.90;;;;;;4843612;29;20064;-84
2023/04/23 06:14:37;;;;;;;77.22;33.80;;;8.80;99.90;;;;;;4858746;29;20137;-84
2023/04/23 06:17:03;;;;;;;77.22;34.95;;;8.80;99.90;;;;;;4843751;29;20507;-83
2023/04/23 06:19:30;;;;;;;77.25;35.10;;;8.90;99.90;;;;;;4858448;29;20042;-84
2023/04/23 06:21:57;;;;;;;77.68;35.95;;;8.90;99.90;;;;;;4858178;29;20058;-84
2023/04/23 06:24:23;;;;;;;75.57;34.47;;;9.00;99.90;;;;;;4843181;29;20084;-84
2023/04/23 06:26:50;;;;;;;71.60;35.00;;;9.00;99.90;;;;;;4842979;29;20052;-84
2023/04/23 06:29:17;;;;;;;71.30;34.60;;;9.10;99.90;;;;;;4862336;29;20069;-84
2023/04/23 06:31:43;;;;;;;78.25;36.45;;;9.10;99.90;;;;;;4843463;29;20046;-82
2023/04/23 06:34:10;;;;;;;76.18;35.70;;;9.20;99.90;;;;;;4843502;29;20137;-83
2023/04/23 06:36:37;;;;;;;72.22;35.08;;;9.20;99.90;;;;;;4858326;29;20054;-83
2023/04/23 06:39:04;;;;;;;72.30;34.47;;;9.20;99.90;;;;;;4844471;29;20449;-83
2023/04/23 06:41:30;;;;;;;78.72;35.63;;;9.30;99.90;;;;;;4872922;29;20522;-83
2023/04/23 06:43:57;;;;;;;65.32;33.50;;;9.40;99.90;;;;;;4896154;29;20052;-82
2023/04/23 06:46:24;;;;;;;72.68;34.40;;;9.40;99.90;;;;;;4898214;29;20485;-83
2023/04/23 06:48:50;;;;;;;72.15;35.45;;;9.40;99.90;;;;;;4867611;29;20456;-83
2023/04/23 06:51:17;;;;;;;69.63;34.55;;;9.50;99.90;;;;;;4840557;29;20563;-83
2023/04/23 06:53:45;;;;;;;71.38;35.13;;;9.50;99.90;;;;;;4849363;29;20439;-83
2023/04/23 06:56:12;;;;;;;66.65;32.83;;;9.50;99.90;;;;;;4879986;29;20077;-83
2023/04/23 06:58:40;;;;;;;66.18;32.50;;;9.60;99.90;;;;;;4864479;29;20081;-83
2023/04/23 07:01:06;;;;;;;68.93;32.75;;;9.60;99.90;;;;;;4861272;29;20110;-83
2023/04/23 07:03:35;;;;;;;64.95;33.67;;;9.60;99.90;;;;;;4846064;29;20071;-83
2023/04/23 07:06:03;;;;;;;64.43;32.30;;;9.70;99.90;;;;;;4849505;29;20054;-83
2023/04/23 07:08:29;;;;;;;68.75;33.90;;;9.70;99.90;;;;;;4864164;29;20102;-83
2023/04/23 07:10:56;;;;;;;61.05;31.58;;;9.80;99.90;;;;;;4861157;29;20038;-83
2023/04/23 07:13:23;;;;;;;67.63;32.72;;;9.90;99.90;;;;;;4861013;29;20046;-84
2023/04/23 07:15:50;;;;;;;61.15;31.65;;;10.00;99.90;;;;;;4845691;29;20046;-83
2023/04/23 07:18:16;;;;;;;62.92;31.05;;;10.00;99.90;;;;;;4846446;29;20132;-83
2023/04/23 07:20:43;;;;;;;65.72;31.75;;;10.10;99.90;;;;;;4860925;29;20042;-83
2023/04/23 07:23:10;;;;;;;62.58;32.65;;;10.20;99.90;;;;;;4846199;29;20038;-84
2023/04/23 07:25:36;;;;;;;55.65;28.65;;;10.40;99.90;;;;;;4861077;29;20102;-83
2023/04/23 07:28:03;;;;;;;55.50;29.17;;;10.40;99.90;;;;;;4876226;29;20073;-83
2023/04/23 07:30:30;;;;;;;54.75;29.10;;;10.60;99.90;;;;;;4846150;29;20081;-83
2023/04/23 07:32:57;;;;;;;54.67;29.38;;;10.70;99.90;;;;;;4862181;29;20050;-83
2023/04/23 07:35:23;;;;;;;51.45;28.17;;;10.70;99.90;;;;;;4845816;29;20052;-83
2023/04/23 07:37:52;;;;;;;52.22;28.08;;;10.80;99.90;;;;;;4894545;29;20446;-84
2023/04/23 07:40:22;;;;;;;50.90;28.42;;;10.90;99.90;;;;;;4853543;29;20518;-83
2023/04/23 07:42:50;;;;;;;49.20;27.00;;;11.00;99.90;;;;;;4870627;29;20049;-83
2023/04/23 07:45:18;;;;;;;47.78;25.48;;;11.10;99.90;;;;;;4866867;29;20112;-83
2023/04/23 07:47:45;;;;;;;49.97;26.98;;;11.20;99.90;;;;;;4882384;29;20642;-83
2023/04/23 07:50:12;;;;;;;46.63;25.98;;;11.40;99.90;;;;;;4866755;29;20049;-84
2023/04/23 07:52:39;;;;;;;47.63;26.05;;;11.50;99.90;;;;;;4882501;29;20045;-83
2023/04/23 07:55:07;;;;;;;47.03;25.75;;;11.60;99.90;;;;;;4866285;29;20809;-82
2023/04/23 07:57:33;;;;;;;44.33;25.38;;;11.60;99.90;;;;;;4869013;29;20092;-83
2023/04/23 08:00:01;;;;;;;45.35;25.15;;;11.70;99.90;;;;;;4890818;29;20049;-83
2023/04/23 08:02:27;;;;;;;47.13;25.23;;;11.90;99.90;;;;;;4877801;29;20081;-83
2023/04/23 08:04:54;;;;;;;43.08;25.88;;;12.00;99.90;;;;;;4878090;29;20100;-83
2023/04/23 08:07:21;;;;;;;48.40;26.23;;;12.10;99.90;;;;;;4863109;29;20540;-82
2023/04/23 08:09:47;;;;;;;43.38;25.38;;;12.20;99.90;;;;;;4860908;29;20049;-82
2023/04/23 08:12:16;;;;;;;43.28;24.05;;;12.20;99.90;;;;;;4879300;29;20084;-83
2023/04/23 08:14:43;;;;;;;44.30;25.08;;;12.30;99.90;;;;;;4863608;29;20053;-82
2023/04/23 08:17:10;;;;;;;40.22;23.38;;;12.50;99.90;;;;;;4893311;29;20037;-82
2023/04/23 08:19:37;;;;;;;42.42;25.48;;;12.70;99.90;;;;;;4862833;29;20109;-83
2023/04/23 08:22:03;;;;;;;41.10;23.85;;;13.00;99.90;;;;;;4862834;29;20048;-83
2023/04/23 08:24:30;;;;;;;41.17;23.67;;;13.20;99.90;;;;;;4863373;29;20041;-83
2023/04/23 08:26:57;;;;;;;37.92;23.02;;;13.30;99.90;;;;;;4863410;29;20052;-82
2023/04/23 08:29:23;;;;;;;37.40;22.52;;;13.20;99.90;;;;;;4863256;29;20042;-83
2023/04/23 08:31:50;;;;;;;39.85;23.98;;;13.10;99.90;;;;;;4877900;29;20538;-82
2023/04/23 08:34:17;;;;;;;41.22;23.33;;;13.00;99.90;;;;;;4847830;29;20119;-82
2023/04/23 08:36:45;;;;;;;41.28;24.42;;;12.90;99.90;;;;;;4862444;29;20053;-82
2023/04/23 08:39:12;;;;;;;43.15;24.63;;;13.00;99.90;;;;;;4847725;29;20601;-82
2023/04/23 08:41:41;;;;;;;39.70;24.08;;;13.00;99.90;;;;;;4862517;29;20037;-82
2023/04/23 08:44:17;;;;;;;41.25;24.95;;;13.00;99.90;;;;;;4878062;29;20042;-83
2023/04/23 08:46:45;;;;;;;39.20;23.58;;;13.20;99.90;;;;;;4877699;29;20106;-82
2023/04/23 08:49:17;;;;;;;40.00;23.92;;;13.40;99.90;;;;;;4878662;29;20450;-83
2023/04/23 08:51:52;;;;;;;38.08;23.13;;;13.50;99.90;;;;;;4896281;29;20048;-83
2023/04/23 08:54:31;;;;;;;37.90;22.45;;;13.60;99.90;;;;;;4848803;29;20654;-83
2023/04/23 08:56:58;;;;;;;36.33;22.83;;;13.60;99.90;;;;;;4892438;29;20045;-83
2023/04/23 08:59:30;;;;;;;35.13;21.13;;;13.80;99.90;;;;;;4880546;29;20086;-83
2023/04/23 09:01:59;;;;;;;39.38;22.38;;;13.90;99.90;;;;;;4895445;29;20053;-83
2023/04/23 09:04:27;;;;;;;34.65;21.63;;;13.80;99.90;;;;;;4865749;29;20060;-82
2023/04/23 09:06:55;;;;;;;34.78;20.55;;;13.90;99.90;;;;;;4879858;29;20045;-82
2023/04/23 09:09:23;;;;;;;33.55;20.00;;;14.00;99.90;;;;;;4880471;29;20045;-83
2023/04/23 09:11:50;;;;;;;33.35;19.08;;;14.10;99.90;;;;;;4895770;29;20037;-83
2023/04/23 09:14:17;;;;;;;30.63;19.45;;;14.20;99.90;;;;;;4895569;29;20673;-83
2023/04/23 09:16:43;;;;;;;34.40;19.00;;;14.30;99.90;;;;;;4880260;29;20445;-84
2023/04/23 09:19:10;;;;;;;31.40;19.83;;;14.50;99.90;;;;;;4880356;29;20136;-83
2023/04/23 09:21:39;;;;;;;27.30;17.92;;;14.70;99.90;;;;;;4895544;29;20041;-83
2023/04/23 09:24:11;;;;;;;33.53;19.98;;;14.80;99.90;;;;;;4895604;29;20119;-82
2023/04/23 09:26:46;;;;;;;30.92;19.02;;;14.80;99.90;;;;;;4895550;29;20410;-83
2023/04/23 09:29:16;;;;;;;28.08;18.85;;;14.80;99.90;;;;;;4837700;29;20507;-83
2023/04/23 09:31:46;;;;;;;29.38;17.80;;;14.80;99.90;;;;;;4844206;29;20046;-83
2023/04/23 09:34:21;;;;;;;26.17;17.15;;;15.00;99.90;;;;;;4873737;29;20049;-82
2023/04/23 09:36:50;;;;;;;27.55;17.55;;;15.10;99.90;;;;;;4859083;29;20048;-82
2023/04/23 09:39:22;;;;;;;27.27;16.70;;;15.10;99.90;;;;;;4859307;29;20046;-82
2023/04/23 09:41:52;;;;;;;28.30;17.20;;;15.30;99.90;;;;;;4858512;29;20133;-83
2023/04/23 09:44:21;;;;;;;26.38;16.40;;;15.40;99.90;;;;;;4864296;29;20540;-83
2023/04/23 09:46:48;;;;;;;29.25;17.02;;;15.60;99.90;;;;;;4899166;29;20049;-82
2023/04/23 09:49:15;;;;;;;27.23;16.27;;;15.70;99.90;;;;;;4872058;29;20125;-83
2023/04/23 09:51:47;;;;;;;26.23;15.55;;;15.90;99.90;;;;;;4877066;29;20514;-83
2023/04/23 09:54:22;;;;;;;24.45;14.15;;;15.90;99.90;;;;;;4876853;29;20046;-82
2023/04/23 09:56:52;;;;;;;24.15;15.20;;;15.80;99.90;;;;;;4879479;29;20427;-83
2023/04/23 09:59:21;;;;;;;21.60;12.90;;;15.80;99.90;;;;;;4873420;29;20782;-83
2023/04/23 10:01:48;;;;;;;20.60;12.27;;;15.80;99.90;;;;;;4910814;29;20097;-84
2023/04/23 10:04:23;;;;;;;17.15;11.52;;;15.90;99.90;;;;;;4881657;29;20053;-83
2023/04/23 10:06:54;;;;;;;20.65;11.32;;;16.00;99.90;;;;;;4862297;29;20042;-83
2023/04/23 10:09:23;;;;;;;20.42;12.30;;;16.20;99.90;;;;;;4861798;29;20045;-83
2023/04/23 10:11:58;;;;;;;19.00;10.43;;;16.40;99.90;;;;;;4876993;29;20133;-81
2023/04/23 10:14:26;;;;;;;19.00;11.98;;;16.60;99.90;;;;;;4881660;29;20049;-83
2023/04/23 10:17:00;;;;;;;16.33;9.88;;;16.70;99.90;;;;;;4895722;29;20410;-83
2023/04/23 10:19:28;;;;;;;16.33;9.65;;;16.50;99.90;;;;;;4902246;29;20055;-82
2023/04/23 10:22:03;;;;;;;20.00;9.77;;;16.40;99.90;;;;;;4883070;29;20043;-83
2023/04/23 10:24:35;;;;;;;;;;;16.50;99.90;;;;;;4884562;29;20451;-84
2023/04/23 10:27:04;;;;;;;29.73;9.32;;;16.50;99.90;;;;;;4897455;29;19994;-83
2023/04/23 10:29:32;;;;;;;14.60;9.48;;;16.50;99.90;;;;;;4880612;29;20251;-83
2023/04/23 10:32:01;;;;;;;17.58;10.05;;;16.50;99.90;;;;;;4898631;29;20406;-83
2023/04/23 10:34:30;;;;;;;16.52;9.88;;;16.30;99.90;;;;;;4883602;29;20053;-83
2023/04/23 10:36:58;;;;;;;16.95;9.15;;;16.30;99.90;;;;;;4879628;29;20644;-83
2023/04/23 10:39:29;;;;;;;15.20;9.27;;;16.50;99.90;;;;;;4864899;29;20078;-83
2023/04/23 10:41:56;;;;;;;13.68;8.20;;;16.70;99.90;;;;;;4879482;29;20053;-83
2023/04/23 10:44:31;;;;;;;14.40;7.95;;;16.90;99.90;;;;;;4877679;29;20041;-83
2023/04/23 10:47:01;;;;;;;12.95;7.38;;;16.90;99.90;;;;;;4882906;29;20093;-83
2023/04/23 10:49:33;;;;;;;13.27;6.97;;;16.80;99.90;;;;;;4869532;29;20045;-83
2023/04/23 10:52:18;;;;;;;14.98;7.00;;;16.90;99.90;;;;;;4861298;29;20046;-82
2023/04/23 10:54:55;;;;;;;12.45;6.22;;;17.10;99.90;;;;;;4867782;29;20049;-83
2023/04/23 10:57:22;;;;;;;11.50;5.95;;;17.20;99.90;;;;;;4886965;29;20071;-83
2023/04/23 10:59:54;;;;;;;10.48;6.38;;;17.10;99.90;;;;;;4884183;29;20041;-83
2023/04/23 11:02:23;;;;;;;10.43;6.15;;;17.10;99.90;;;;;;4879117;29;20503;-83
2023/04/23 11:04:55;;;;;;;10.38;5.22;;;17.00;99.90;;;;;;4894856;29;20053;-83
2023/04/23 11:07:29;;;;;;;10.98;5.63;;;17.10;99.90;;;;;;4891753;29;20045;-83
2023/04/23 11:09:59;;;;;;;12.57;5.60;;;17.20;99.90;;;;;;4897938;29;20136;-82
2023/04/23 11:12:26;;;;;;;9.88;5.22;;;17.40;99.90;;;;;;4886783;29;20071;-83
2023/04/23 11:14:54;;;;;;;10.40;4.88;;;17.60;99.90;;;;;;4879526;29;20059;-83
2023/04/23 11:17:22;;;;;;;12.55;5.68;;;17.70;99.90;;;;;;4878937;29;20447;-83
2023/04/23 11:20:14;;;;;;;11.02;4.50;;;17.90;99.90;;;;;;4894626;29;20522;-84
2023/04/23 11:22:45;;;;;;;9.60;4.60;;;18.10;99.90;;;;;;4894668;29;20247;-83
2023/04/23 11:25:19;;;;;;;9.68;4.35;;;18.10;99.90;;;;;;4863771;29;20052;-83
2023/04/23 11:27:47;;;;;;;11.45;4.22;;;18.10;99.90;;;;;;4901574;29;20129;-82
2023/04/23 11:30:25;;;;;;;7.32;3.30;;;18.10;99.90;;;;;;4891438;29;20044;-82
2023/04/23 11:32:54;;;;;;;7.55;3.50;;;18.20;99.90;;;;;;4910313;29;20128;-83
2023/04/23 11:35:27;;;;;;;6.90;2.95;;;18.20;99.90;;;;;;4897133;29;20446;-82
2023/04/23 11:37:54;;;;;;;10.90;3.30;;;18.20;99.90;;;;;;4897429;29;20049;-83
2023/04/23 11:40:23;;;;;;;6.10;2.70;;;18.10;99.90;;;;;;4886417;29;20048;-83
2023/04/23 11:42:52;;;;;;;7.00;2.97;;;18.10;99.90;;;;;;4896544;29;20041;-83
2023/04/23 11:45:28;;;;;;;6.93;2.72;;;18.10;99.90;;;;;;4889563;29;20124;-83
2023/04/23 11:47:59;;;;;;;7.18;3.10;;;17.90;99.90;;;;;;4897650;29;20525;-82
2023/04/23 11:50:31;;;;;;;5.57;2.30;;;17.70;99.90;;;;;;4887233;29;20044;-82
2023/04/23 11:53:10;;;;;;;8.63;2.78;;;17.60;99.90;;;;;;4878593;29;20101;-82
2023/04/23 11:55:37;;;;;;;9.27;2.22;;;17.60;99.90;;;;;;4870692;29;20045;-82
2023/04/23 11:58:03;;;;;;;7.57;2.42;;;17.60;99.90;;;;;;4891723;29;20045;-82
2023/04/23 12:00:30;;;;;;;8.55;2.10;;;17.70;99.90;;;;;;4897265;29;20045;-83
2023/04/23 12:03:00;;;;;;;7.15;2.58;;;17.80;99.90;;;;;;4866701;29;20388;-83
2023/04/23 12:05:38;;;;;;;6.43;2.33;;;17.80;99.90;;;;;;4884626;29;20082;-83
2023/04/23 12:08:15;;;;;;;7.93;2.33;;;17.80;99.90;;;;;;4864791;29;20046;-82
2023/04/23 12:11:00;;;;;;;6.25;2.40;;;17.90;99.90;;;;;;4894120;29;20049;-83
2023/04/23 12:13:32;;;;;;;7.57;2.58;;;17.80;99.90;;;;;;4894022;29;20042;-83
2023/04/23 12:16:01;;;;;;;6.13;1.90;;;17.70;99.90;;;;;;4863784;29;20045;-83
2023/04/23 12:18:36;;;;;;;5.60;2.05;;;17.90;99.90;;;;;;4878771;29;20495;-82
2023/04/23 12:21:08;;;;;;;5.85;1.75;;;18.00;99.90;;;;;;4868477;29;20042;-82
2023/04/23 12:23:40;;;;;;;7.05;1.50;;;18.20;99.90;;;;;;4863466;29;20133;-82
2023/04/23 12:26:11;;;;;;;7.95;1.70;;;18.10;99.90;;;;;;4862914;29;20044;-82
2023/04/23 12:28:51;;;;;;;6.65;2.10;;;18.10;99.90;;;;;;4878232;29;20049;-82
2023/04/23 12:31:23;;;;;;;7.78;1.67;;;18.00;99.90;;;;;;4862535;29;20125;-82
2023/04/23 12:34:09;;;;;;;5.10;1.73;;;17.90;99.90;;;;;;4877669;29;20144;-82
2023/04/23 12:36:38;;;;;;;4.97;1.58;;;17.70;99.90;;;;;;4877855;29;20144;-82
2023/04/23 12:39:37;;;;;;;6.63;1.50;;;17.70;99.90;;;;;;4881672;29;20049;-83
2023/04/23 12:42:08;;;;;;;7.05;1.40;;;17.60;99.90;;;;;;4865833;29;20577;-81